createdAt,value
2023-05-20T00:00:57.254Z,16.52
2023-05-20T00:03:25.531Z,16.60
2023-05-20T00:05:53.067Z,16.64
2023-05-20T00:08:20.987Z,16.86
2023-05-20T00:10:48.812Z,16.90
2023-05-20T00:13:16.281Z,16.97
2023-05-20T00:15:43.889Z,17.05
2023-05-20T00:18:11.483Z,16.95
2023-05-20T00:20:40.096Z,17.11
2023-05-20T00:23:07.371Z,17.17
2023-05-20T00:25:35.185Z,17.26
2023-05-20T00:28:03.012Z,17.13
2023-05-20T00:30:30.295Z,17.24
2023-05-20T00:32:57.566Z,17.31
2023-05-20T00:35:24.871Z,16.97
2023-05-20T00:37:52.187Z,16.90
2023-05-20T00:40:20.979Z,16.95
2023-05-20T00:42:48.203Z,17.08
2023-05-20T00:45:15.703Z,17.18
2023-05-20T00:47:43.842Z,17.31
2023-05-20T00:50:11.761Z,17.14
2023-05-20T00:52:44.006Z,17.21
2023-05-20T00:55:12.620Z,17.06
2023-05-20T00:57:40.394Z,17.07
2023-05-20T01:00:10.763Z,17.24
2023-05-20T01:02:38.963Z,17.18
2023-05-20T01:05:07.921Z,17.20
2023-05-20T01:07:35.805Z,17.12
2023-05-20T01:10:04.184Z,17.32
2023-05-20T01:12:46.643Z,17.43
2023-05-20T01:15:16.676Z,17.29
2023-05-20T01:17:52.982Z,17.10
2023-05-20T01:20:22.224Z,17.13
2023-05-20T01:22:57.618Z,17.05
2023-05-20T01:25:26.486Z,17.20
2023-05-20T01:28:00.681Z,16.83
2023-05-20T01:30:37.621Z,17.06
2023-05-20T01:33:13.472Z,17.12
2023-05-20T01:35:42.672Z,17.06
2023-05-20T01:38:10.188Z,16.95
2023-05-20T01:40:38.800Z,16.93
2023-05-20T01:43:07.313Z,16.88
2023-05-20T01:45:37.026Z,16.77
2023-05-20T01:48:05.202Z,16.66
2023-05-20T01:50:32.602Z,16.77
2023-05-20T01:53:01.223Z,16.92
2023-05-20T01:55:28.655Z,16.87
2023-05-20T01:57:56.011Z,16.91
2023-05-20T02:00:23.456Z,16.82
2023-05-20T02:02:50.954Z,16.81
2023-05-20T02:05:18.794Z,16.67
2023-05-20T02:07:46.441Z,16.48
2023-05-20T02:10:14.528Z,16.43
2023-05-20T02:12:43.013Z,16.47
2023-05-20T02:15:11.101Z,16.55
2023-05-20T02:17:39.823Z,16.43
2023-05-20T02:20:08.668Z,16.29
2023-05-20T02:22:36.911Z,16.27
2023-05-20T02:25:05.562Z,16.21
2023-05-20T02:27:32.916Z,16.16
2023-05-20T02:30:01.590Z,16.07
2023-05-20T02:32:29.526Z,16.11
2023-05-20T02:34:57.065Z,15.99
2023-05-20T02:37:24.392Z,16.14
2023-05-20T02:39:51.613Z,16.13
2023-05-20T02:42:19.559Z,16.04
2023-05-20T02:44:46.953Z,16.08
2023-05-20T02:47:14.700Z,15.97
2023-05-20T02:49:42.210Z,16.03
2023-05-20T02:52:10.624Z,16.06
2023-05-20T02:54:38.202Z,15.82
2023-05-20T02:57:05.723Z,15.93
2023-05-20T02:59:33.039Z,15.91
2023-05-20T03:02:00.812Z,15.92
2023-05-20T03:04:28.976Z,15.81
2023-05-20T03:06:57.916Z,15.79
2023-05-20T03:09:25.838Z,15.76
2023-05-20T03:11:53.694Z,15.66
2023-05-20T03:14:21.503Z,15.62
2023-05-20T03:16:49.092Z,15.56
2023-05-20T03:19:17.002Z,15.52
2023-05-20T03:21:44.493Z,15.53
2023-05-20T03:24:12.035Z,15.55
2023-05-20T03:26:43.301Z,15.52
2023-05-20T03:29:10.982Z,15.38
2023-05-20T03:31:38.527Z,15.32
2023-05-20T03:34:05.873Z,15.41
2023-05-20T03:36:33.318Z,15.39
2023-05-20T03:39:01.922Z,15.42
2023-05-20T03:41:31.092Z,15.47
2023-05-20T03:43:58.467Z,15.43
2023-05-20T03:46:27.305Z,15.52
2023-05-20T03:48:54.643Z,15.52
2023-05-20T03:51:22.937Z,15.54
2023-05-20T03:53:51.590Z,15.61
2023-05-20T03:56:19.107Z,15.31
2023-05-20T03:58:46.435Z,15.40
2023-05-20T04:01:14.395Z,15.78
2023-05-20T04:03:42.909Z,15.91
2023-05-20T04:06:10.296Z,15.94
2023-05-20T04:08:37.883Z,16.00
2023-05-20T04:11:06.221Z,16.14
2023-05-20T04:13:34.469Z,16.34
2023-05-20T04:16:03.031Z,16.46
2023-05-20T04:18:31.867Z,16.49
2023-05-20T04:21:24.885Z,16.74
2023-05-20T04:23:52.236Z,16.75
2023-05-20T04:26:20.708Z,16.93
2023-05-20T04:28:51.049Z,17.16
2023-05-20T04:31:18.706Z,17.13
2023-05-20T04:33:46.596Z,17.27
2023-05-20T04:36:16.202Z,17.47
2023-05-20T04:38:44.748Z,17.65
2023-05-20T04:41:12.136Z,18.17
2023-05-20T04:43:40.469Z,18.53
2023-05-20T04:46:08.847Z,18.80
2023-05-20T04:48:36.596Z,19.08
2023-05-20T04:51:04.709Z,19.16
2023-05-20T04:53:33.943Z,19.05
2023-05-20T04:56:01.919Z,19.25
2023-05-20T04:58:31.692Z,19.34
2023-05-20T05:00:59.972Z,19.61
2023-05-20T05:03:27.663Z,19.77
2023-05-20T05:05:59.271Z,19.96
2023-05-20T05:08:27.070Z,19.89
2023-05-20T05:10:55.260Z,20.04
2023-05-20T05:13:22.852Z,20.29
2023-05-20T05:16:03.250Z,20.51
2023-05-20T05:18:32.475Z,20.67
2023-05-20T05:21:05.247Z,20.83
2023-05-20T05:23:34.650Z,20.81
2023-05-20T05:26:02.056Z,21.00
2023-05-20T05:28:29.320Z,21.02
2023-05-20T05:30:57.252Z,21.48
2023-05-20T05:33:24.740Z,21.91
2023-05-20T05:35:52.700Z,21.93
2023-05-20T05:38:20.240Z,22.10
2023-05-20T05:40:47.662Z,22.82
2023-05-20T05:43:16.219Z,23.33
2023-05-20T05:45:46.433Z,23.87
2023-05-20T05:48:13.859Z,25.18
2023-05-20T05:50:46.442Z,26.07
2023-05-20T05:53:15.466Z,25.32
2023-05-20T05:55:47.457Z,24.15
2023-05-20T05:58:15.524Z,23.01
2023-05-20T06:00:42.779Z,22.64
2023-05-20T06:03:14.978Z,23.31
2023-05-20T06:05:47.302Z,24.02
2023-05-20T06:08:14.707Z,24.80
2023-05-20T06:10:42.195Z,25.61
2023-05-20T06:13:09.373Z,26.41
2023-05-20T06:15:37.005Z,24.98
2023-05-20T06:18:04.526Z,25.77
2023-05-20T06:20:32.876Z,26.95
2023-05-20T06:23:00.291Z,28.88
2023-05-20T06:25:42.068Z,28.67
2023-05-20T06:28:09.322Z,29.40
2023-05-20T06:30:36.631Z,30.36
2023-05-20T06:33:04.204Z,28.27
2023-05-20T06:35:31.418Z,25.30
2023-05-20T06:37:58.776Z,25.33
2023-05-20T06:40:27.376Z,26.33
2023-05-20T06:42:55.170Z,27.72
2023-05-20T06:45:43.626Z,26.98
2023-05-20T06:48:34.400Z,28.66
2023-05-20T06:51:09.582Z,29.13
2023-05-20T06:53:37.464Z,27.72
2023-05-20T06:56:05.248Z,28.67
2023-05-20T06:58:33.402Z,29.55
2023-05-20T07:01:00.642Z,31.30
2023-05-20T07:03:28.451Z,30.82
2023-05-20T07:05:55.964Z,30.25
2023-05-20T07:08:24.327Z,28.80
2023-05-20T07:10:52.340Z,28.57
2023-05-20T07:13:24.060Z,28.55
2023-05-20T07:15:52.596Z,30.54
2023-05-20T07:18:21.535Z,29.66
2023-05-20T07:20:53.541Z,30.08
2023-05-20T07:23:33.804Z,29.95
2023-05-20T07:26:01.431Z,30.61
2023-05-20T07:28:30.828Z,29.56
2023-05-20T07:31:00.197Z,28.44
2023-05-20T07:33:30.965Z,29.32
2023-05-20T07:35:59.385Z,29.87
2023-05-20T07:38:26.981Z,29.42
2023-05-20T07:41:01.040Z,29.32
2023-05-20T07:43:29.096Z,28.10
2023-05-20T07:45:57.333Z,27.17
2023-05-20T07:48:29.037Z,25.86
2023-05-20T07:51:03.972Z,25.09
2023-05-20T07:53:33.640Z,26.03
2023-05-20T07:56:01.201Z,27.36
2023-05-20T07:58:31.786Z,29.70
2023-05-20T08:01:00.398Z,30.15
2023-05-20T08:03:28.740Z,29.76
2023-05-20T08:06:03.802Z,27.38
2023-05-20T08:08:31.342Z,25.99
2023-05-20T08:11:06.302Z,24.99
2023-05-20T08:13:34.131Z,24.67
2023-05-20T08:17:18.039Z,23.88
2023-05-20T08:19:46.241Z,24.36
2023-05-20T08:23:33.355Z,23.92
2023-05-20T08:26:04.201Z,25.24
2023-05-20T08:28:34.390Z,25.36
2023-05-20T08:31:02.650Z,26.41
2023-05-20T08:33:31.355Z,25.52
2023-05-20T08:35:59.209Z,24.87
2023-05-20T08:38:26.600Z,24.85
2023-05-20T08:40:58.051Z,25.42
2023-05-20T08:44:41.252Z,26.27
2023-05-20T08:48:24.668Z,28.04
2023-05-20T08:50:53.693Z,28.38
2023-05-20T08:54:37.737Z,31.07
2023-05-20T08:57:05.971Z,29.78
2023-05-20T09:00:48.077Z,29.88
2023-05-20T09:04:31.641Z,32.50
2023-05-20T09:08:14.579Z,33.00
2023-05-20T09:10:43.094Z,31.72
2023-05-20T09:14:29.294Z,30.11
2023-05-20T09:16:57.366Z,29.93
2023-05-20T09:19:26.489Z,28.92
2023-05-20T09:21:56.307Z,28.58
2023-05-20T09:24:27.006Z,28.60
2023-05-20T09:26:55.285Z,27.98
2023-05-20T09:29:23.503Z,29.20
2023-05-20T09:31:51.884Z,28.83
2023-05-20T09:34:22.055Z,29.48
2023-05-20T09:36:51.172Z,30.61
2023-05-20T09:39:34.359Z,29.88
2023-05-20T09:42:12.698Z,29.29
2023-05-20T09:44:42.713Z,28.32
2023-05-20T09:47:10.497Z,27.78
2023-05-20T09:49:39.649Z,28.09
2023-05-20T09:52:07.712Z,30.32
2023-05-20T09:54:36.912Z,32.30
2023-05-20T09:57:07.442Z,34.04
2023-05-20T09:59:37.917Z,35.01
2023-05-20T10:02:07.426Z,35.48
2023-05-20T10:04:43.284Z,36.73
2023-05-20T10:07:55.570Z,39.51
2023-05-20T10:11:05.878Z,38.44
2023-05-20T10:13:57.725Z,37.30
2023-05-20T10:17:40.999Z,39.75
2023-05-20T10:21:27.004Z,38.20
2023-05-20T10:23:55.327Z,36.27
2023-05-20T10:27:38.203Z,33.91
2023-05-20T10:31:21.502Z,36.07
2023-05-20T10:35:05.088Z,36.25
2023-05-20T10:38:48.193Z,34.09
2023-05-20T10:41:28.846Z,34.30
2023-05-20T10:44:06.859Z,32.83
2023-05-20T10:47:49.724Z,33.78
2023-05-20T10:51:32.430Z,38.16
2023-05-20T10:55:14.969Z,37.58
2023-05-20T10:58:57.833Z,36.91
2023-05-20T11:02:40.718Z,38.81
2023-05-20T11:06:23.203Z,36.51
2023-05-20T11:08:50.393Z,34.02
2023-05-20T11:11:17.580Z,35.62
2023-05-20T11:13:45.928Z,34.15
2023-05-20T11:16:13.550Z,31.98
2023-05-20T11:18:41.864Z,34.46
2023-05-20T11:21:09.324Z,36.21
2023-05-20T11:23:39.877Z,37.18
2023-05-20T11:26:09.007Z,36.18
2023-05-20T11:28:36.767Z,36.34
2023-05-20T11:31:05.725Z,34.53
2023-05-20T11:33:33.785Z,35.76
2023-05-20T11:36:44.331Z,36.53
2023-05-20T11:39:17.780Z,40.63
2023-05-20T11:41:48.438Z,39.30
2023-05-20T11:44:15.742Z,38.81
2023-05-20T11:46:46.068Z,36.38
2023-05-20T11:49:15.501Z,32.14
2023-05-20T11:51:45.165Z,31.94
2023-05-20T11:54:13.381Z,34.32
2023-05-20T11:56:45.711Z,36.27
2023-05-20T11:59:14.878Z,36.47
2023-05-20T12:01:43.232Z,34.21
2023-05-20T12:04:15.142Z,33.13
2023-05-20T12:06:44.182Z,33.05
2023-05-20T12:09:14.222Z,32.82
2023-05-20T12:11:45.806Z,31.73
2023-05-20T12:14:16.855Z,32.16
2023-05-20T12:17:00.101Z,31.69
2023-05-20T12:19:30.006Z,31.38
2023-05-20T12:21:59.923Z,31.06
2023-05-20T12:24:32.289Z,31.29
2023-05-20T12:27:00.922Z,31.78
2023-05-20T12:29:31.442Z,33.09
2023-05-20T12:31:59.314Z,34.64
2023-05-20T12:34:26.974Z,35.06
2023-05-20T12:36:54.424Z,35.11
2023-05-20T12:39:24.293Z,35.13
2023-05-20T12:41:52.373Z,34.10
2023-05-20T12:44:20.310Z,34.53
2023-05-20T12:46:47.877Z,33.97
2023-05-20T12:49:15.793Z,34.12
2023-05-20T12:51:43.649Z,33.95
2023-05-20T12:54:11.098Z,34.17
2023-05-20T12:56:39.481Z,35.08
2023-05-20T12:59:07.429Z,33.73
2023-05-20T13:01:34.967Z,33.12
2023-05-20T13:04:03.522Z,32.95
2023-05-20T13:06:35.193Z,31.76
2023-05-20T13:09:13.533Z,32.25
2023-05-20T13:11:40.920Z,32.40
2023-05-20T13:14:11.818Z,32.79
2023-05-20T13:16:41.228Z,31.90
2023-05-20T13:19:09.779Z,32.30
2023-05-20T13:21:48.117Z,30.66
2023-05-20T13:24:22.390Z,30.43
2023-05-20T13:26:54.532Z,30.35
2023-05-20T13:29:22.689Z,30.07
2023-05-20T13:31:50.395Z,30.71
2023-05-20T13:34:18.798Z,29.70
2023-05-20T13:36:50.431Z,29.39
2023-05-20T13:39:23.211Z,29.90
2023-05-20T13:41:53.606Z,29.67
2023-05-20T13:44:23.532Z,30.35
2023-05-20T13:47:01.162Z,30.56
2023-05-20T13:49:28.944Z,29.99
2023-05-20T13:52:07.687Z,30.83
2023-05-20T13:54:39.050Z,30.32
2023-05-20T13:57:09.693Z,30.85
2023-05-20T13:59:37.731Z,30.10
2023-05-20T14:02:12.486Z,30.20
2023-05-20T14:04:48.563Z,30.27
2023-05-20T14:07:16.512Z,30.45
2023-05-20T14:09:45.480Z,30.12
2023-05-20T14:12:13.051Z,29.66
2023-05-20T14:14:43.111Z,29.42
2023-05-20T14:17:11.056Z,29.93
2023-05-20T14:19:42.290Z,30.43
2023-05-20T14:22:12.133Z,30.11
2023-05-20T14:24:40.133Z,28.96
2023-05-20T14:27:08.155Z,29.27
2023-05-20T14:29:36.149Z,29.42
2023-05-20T14:32:22.493Z,29.75
2023-05-20T14:34:55.445Z,30.07
2023-05-20T14:37:37.298Z,29.42
2023-05-20T14:40:15.176Z,29.24
2023-05-20T14:42:52.099Z,28.94
2023-05-20T14:45:23.621Z,28.91
2023-05-20T14:47:55.015Z,29.54
2023-05-20T14:50:32.050Z,29.47
2023-05-20T14:52:59.988Z,29.65
2023-05-20T14:55:44.808Z,30.17
2023-05-20T14:58:18.592Z,29.03
2023-05-20T15:00:53.281Z,28.81
2023-05-20T15:03:24.382Z,28.57
2023-05-20T15:06:00.933Z,28.89
2023-05-20T15:08:42.088Z,28.25
2023-05-20T15:11:23.821Z,28.17
2023-05-20T15:14:02.441Z,28.43
2023-05-20T15:16:34.721Z,28.71
2023-05-20T15:19:19.310Z,28.62
2023-05-20T15:21:53.479Z,28.56
2023-05-20T15:24:41.073Z,28.65
2023-05-20T15:27:11.554Z,28.76
2023-05-20T15:29:49.074Z,28.71
2023-05-20T15:32:40.215Z,28.60
2023-05-20T15:35:20.966Z,28.97
2023-05-20T15:37:57.369Z,29.16
2023-05-20T15:40:27.740Z,29.34
2023-05-20T15:42:59.028Z,28.25
2023-05-20T15:45:27.941Z,28.52
2023-05-20T15:48:03.346Z,28.58
2023-05-20T15:50:36.373Z,29.20
2023-05-20T15:53:15.794Z,29.54
2023-05-20T15:55:46.052Z,29.75
2023-05-20T15:58:16.101Z,29.84
2023-05-20T16:00:44.245Z,28.73
2023-05-20T16:03:13.459Z,28.97
2023-05-20T16:05:46.419Z,28.60
2023-05-20T16:08:16.762Z,29.26
2023-05-20T16:10:51.855Z,30.07
2023-05-20T16:13:20.090Z,31.05
2023-05-20T16:16:01.488Z,31.63
2023-05-20T16:18:34.817Z,31.08
2023-05-20T16:21:07.970Z,30.94
2023-05-20T16:23:38.752Z,30.69
2023-05-20T16:26:13.250Z,30.60
2023-05-20T16:28:47.508Z,31.07
2023-05-20T16:31:34.498Z,30.84
2023-05-20T16:34:04.699Z,30.04
2023-05-20T16:36:43.936Z,30.42
2023-05-20T16:39:21.426Z,30.13
2023-05-20T16:41:53.133Z,30.38
2023-05-20T16:44:26.124Z,30.73
2023-05-20T16:46:56.599Z,30.79
2023-05-20T16:49:28.342Z,29.55
2023-05-20T16:51:58.749Z,28.79
2023-05-20T16:54:26.494Z,28.84
2023-05-20T16:57:00.865Z,29.18
2023-05-20T16:59:31.578Z,29.52
2023-05-20T17:01:59.304Z,29.33
2023-05-20T17:04:27.274Z,29.62
2023-05-20T17:07:03.176Z,29.99
2023-05-20T17:09:33.304Z,29.69
2023-05-20T17:12:01.122Z,29.61
2023-05-20T17:14:28.621Z,29.50
2023-05-20T17:16:55.962Z,29.46
2023-05-20T17:19:23.808Z,29.24
2023-05-20T17:21:54.327Z,29.21
2023-05-20T17:24:22.751Z,29.70
2023-05-20T17:26:50.486Z,29.80
2023-05-20T17:29:18.179Z,30.15
2023-05-20T17:31:45.400Z,30.26
2023-05-20T17:34:13.867Z,29.80
2023-05-20T17:36:41.459Z,29.72
2023-05-20T17:39:09.729Z,29.85
2023-05-20T17:41:37.094Z,29.75
2023-05-20T17:44:05.056Z,29.57
2023-05-20T17:46:32.333Z,29.42
2023-05-20T17:48:59.738Z,28.72
2023-05-20T17:51:27.299Z,29.01
2023-05-20T17:53:55.118Z,28.90
2023-05-20T17:56:22.938Z,28.83
2023-05-20T17:58:50.657Z,29.05
2023-05-20T18:01:17.966Z,29.17
2023-05-20T18:03:46.729Z,28.57
2023-05-20T18:06:14.702Z,28.65
2023-05-20T18:08:42.512Z,28.40
2023-05-20T18:11:10.688Z,28.51
2023-05-20T18:13:38.343Z,28.41
2023-05-20T18:16:06.796Z,28.29
2023-05-20T18:18:34.155Z,28.52
2023-05-20T18:21:01.470Z,28.21
2023-05-20T18:23:29.356Z,27.58
2023-05-20T18:25:57.268Z,28.03
2023-05-20T18:28:24.584Z,28.03
2023-05-20T18:30:51.978Z,27.97
2023-05-20T18:33:19.502Z,28.04
2023-05-20T18:35:46.976Z,27.90
2023-05-20T18:38:14.433Z,27.75
2023-05-20T18:40:41.688Z,27.58
2023-05-20T18:43:09.004Z,27.45
2023-05-20T18:45:36.310Z,27.40
2023-05-20T18:48:05.266Z,27.33
2023-05-20T18:50:33.290Z,27.23
2023-05-20T18:53:00.856Z,27.01
2023-05-20T18:55:28.275Z,26.96
2023-05-20T18:57:56.384Z,26.71
2023-05-20T19:00:24.393Z,26.63
2023-05-20T19:02:51.703Z,26.67
2023-05-20T19:05:20.069Z,26.61
2023-05-20T19:07:47.479Z,26.55
2023-05-20T19:10:15.487Z,26.39
2023-05-20T19:12:43.589Z,26.15
2023-05-20T19:15:11.809Z,25.89
2023-05-20T19:17:39.668Z,25.69
2023-05-20T19:20:08.916Z,25.94
2023-05-20T19:22:36.179Z,25.67
2023-05-20T19:25:05.215Z,25.46
2023-05-20T19:27:32.492Z,25.61
2023-05-20T19:29:59.767Z,25.40
2023-05-20T19:32:27.083Z,25.52
2023-05-20T19:34:56.880Z,25.33
2023-05-20T19:37:24.464Z,25.21
2023-05-20T19:39:51.756Z,25.01
2023-05-20T19:42:19.034Z,25.15
2023-05-20T19:44:50.486Z,25.07
2023-05-20T19:47:17.971Z,25.03
2023-05-20T19:49:45.271Z,25.16
2023-05-20T19:52:12.472Z,25.08
2023-05-20T19:54:41.678Z,25.14
2023-05-20T19:57:08.993Z,25.14
2023-05-20T19:59:38.052Z,25.18
2023-05-20T20:02:07.130Z,25.23
2023-05-20T20:04:34.434Z,25.16
2023-05-20T20:07:02.491Z,25.10
2023-05-20T20:09:31.270Z,25.01
2023-05-20T20:11:58.760Z,25.03
2023-05-20T20:14:25.986Z,24.84
2023-05-20T20:16:54.556Z,24.60
2023-05-20T20:19:23.054Z,24.67
2023-05-20T20:21:56.873Z,24.64
2023-05-20T20:24:24.439Z,24.60
2023-05-20T20:26:54.138Z,24.44
2023-05-20T20:29:24.623Z,24.31
2023-05-20T20:31:52.498Z,24.31
2023-05-20T20:34:19.761Z,24.24
2023-05-20T20:36:47.530Z,24.25
2023-05-20T20:39:21.171Z,24.21
2023-05-20T20:41:50.452Z,24.05
2023-05-20T20:44:22.549Z,23.96
2023-05-20T20:46:51.717Z,24.03
2023-05-20T20:49:21.083Z,23.94
2023-05-20T20:51:50.283Z,23.92
2023-05-20T20:54:17.865Z,23.82
2023-05-20T20:56:47.172Z,23.83
2023-05-20T20:59:15.815Z,23.68
2023-05-20T21:01:44.782Z,23.67
2023-05-20T21:04:14.057Z,23.48
2023-05-20T21:06:47.596Z,23.31
2023-05-20T21:09:16.323Z,23.36
2023-05-20T21:11:45.270Z,23.27
2023-05-20T21:14:13.275Z,23.13
2023-05-20T21:16:42.136Z,23.25
2023-05-20T21:19:10.414Z,23.10
2023-05-20T21:22:04.594Z,22.99
2023-05-20T21:24:32.672Z,22.78
2023-05-20T21:27:00.148Z,22.91
2023-05-20T21:29:27.404Z,22.98
2023-05-20T21:31:55.102Z,22.81
2023-05-20T21:34:22.288Z,22.73
2023-05-20T21:36:49.540Z,22.67
2023-05-20T21:39:17.093Z,22.64
2023-05-20T21:41:44.427Z,22.59
2023-05-20T21:44:11.689Z,22.36
2023-05-20T21:46:39.162Z,22.33
2023-05-20T21:49:06.531Z,22.42
2023-05-20T21:51:33.991Z,22.52
2023-05-20T21:54:01.477Z,22.26
2023-05-20T21:56:28.798Z,22.12
2023-05-20T21:58:56.238Z,22.44
2023-05-20T22:01:23.692Z,22.42
2023-05-20T22:03:53.398Z,22.05
2023-05-20T22:06:21.700Z,22.05
2023-05-20T22:08:49.388Z,21.92
2023-05-20T22:11:17.049Z,21.81
2023-05-20T22:13:44.593Z,21.77
2023-05-20T22:16:12.079Z,21.83
2023-05-20T22:18:39.709Z,21.57
2023-05-20T22:21:11.747Z,21.47
2023-05-20T22:23:41.130Z,21.74
2023-05-20T22:26:11.567Z,22.20
2023-05-20T22:28:38.781Z,21.85
2023-05-20T22:31:06.328Z,21.98
2023-05-20T22:33:33.868Z,21.78
2023-05-20T22:36:01.115Z,21.76
2023-05-20T22:38:30.720Z,21.68
2023-05-20T22:40:57.993Z,21.41
2023-05-20T22:43:26.275Z,21.55
2023-05-20T22:45:53.999Z,21.63
2023-05-20T22:48:23.179Z,21.56
2023-05-20T22:50:51.782Z,21.61
2023-05-20T22:53:20.998Z,21.47
2023-05-20T22:55:49.136Z,21.46
2023-05-20T22:58:16.857Z,21.41
2023-05-20T23:00:44.567Z,21.33
2023-05-20T23:03:12.370Z,21.39
2023-05-20T23:05:39.682Z,21.28
2023-05-20T23:08:07.002Z,21.30
2023-05-20T23:10:34.729Z,21.24
2023-05-20T23:13:02.220Z,21.33
2023-05-20T23:15:31.147Z,21.51
2023-05-20T23:19:13.888Z,21.38
2023-05-20T23:21:41.197Z,21.23
2023-05-20T23:25:27.033Z,21.49
2023-05-20T23:27:54.290Z,21.46
2023-05-20T23:30:21.663Z,21.38
2023-05-20T23:34:04.517Z,21.20
2023-05-20T23:36:34.461Z,21.12
2023-05-20T23:40:17.166Z,21.20
2023-05-20T23:42:50.465Z,21.24
2023-05-20T23:46:32.845Z,21.08
2023-05-20T23:50:15.794Z,21.02
2023-05-20T23:52:43.187Z,20.94
2023-05-20T23:55:13.002Z,20.93
2023-05-20T23:58:57.502Z,20.88
